Terminal Aerodrome Forecast
Issued by NWS Green Bay, WI

Home | Current Version | Previous Version | Graphics & Text | Print | Product List | Glossary On
Versions: 1 2 3 4 5 6 7 8 9 10 11 12 13 14 15 16 17 18 19 20 21 22 23 24 25 26 27 28 29 30
000
FTUS43 KGRB 240520
TAFGRB
TAF
KGRB 240520Z 2406/2506 02003KT P6SM SCT150
     FM241400 02006KT P6SM BKN100
     FM242000 02011KT P6SM BKN050
     FM250300 02009KT P6SM SCT050=

USA.gov is the U.S. government's official web portal to all federal, state and local government web resources and services.